sensor_id;sensor_type;location;lat;lon;timestamp;P1;durP1;ratioP1;P2;durP2;ratioP2
34353;SDS011;20618;0.000;0.000;2023-07-02T00:00:08;2.40;;;1.60;;
34353;SDS011;20618;0.000;0.000;2023-07-02T00:02:38;2.60;;;1.70;;
34353;SDS011;20618;0.000;0.000;2023-07-02T00:05:04;2.75;;;1.75;;
34353;SDS011;20618;0.000;0.000;2023-07-02T00:07:31;3.00;;;1.98;;
34353;SDS011;20618;0.000;0.000;2023-07-02T00:09:59;2.80;;;1.92;;
34353;SDS011;20618;0.000;0.000;2023-07-02T00:12:25;2.95;;;2.00;;
34353;SDS011;20618;0.000;0.000;2023-07-02T00:14:51;2.70;;;2.05;;
34353;SDS011;20618;0.000;0.000;2023-07-02T00:17:18;3.30;;;1.95;;
34353;SDS011;20618;0.000;0.000;2023-07-02T00:19:44;2.90;;;2.10;;
34353;SDS011;20618;0.000;0.000;2023-07-02T00:22:11;2.60;;;1.80;;
34353;SDS011;20618;0.000;0.000;2023-07-02T00:24:41;3.22;;;2.00;;
34353;SDS011;20618;0.000;0.000;2023-07-02T00:27:07;2.70;;;2.00;;
34353;SDS011;20618;0.000;0.000;2023-07-02T00:29:33;3.40;;;2.20;;
34353;SDS011;20618;0.000;0.000;2023-07-02T00:32:00;2.90;;;2.22;;
34353;SDS011;20618;0.000;0.000;2023-07-02T00:34:26;2.75;;;2.00;;
34353;SDS011;20618;0.000;0.000;2023-07-02T00:36:52;2.70;;;1.95;;
34353;SDS011;20618;0.000;0.000;2023-07-02T00:39:18;3.35;;;2.10;;
34353;SDS011;20618;0.000;0.000;2023-07-02T00:41:44;3.40;;;2.10;;
34353;SDS011;20618;0.000;0.000;2023-07-02T00:44:13;3.45;;;1.95;;
34353;SDS011;20618;0.000;0.000;2023-07-02T00:46:40;3.25;;;2.15;;
34353;SDS011;20618;0.000;0.000;2023-07-02T00:49:07;3.85;;;2.15;;
34353;SDS011;20618;0.000;0.000;2023-07-02T00:51:34;2.83;;;2.10;;
34353;SDS011;20618;0.000;0.000;2023-07-02T00:54:00;2.97;;;2.00;;
34353;SDS011;20618;0.000;0.000;2023-07-02T00:56:26;2.90;;;2.10;;
34353;SDS011;20618;0.000;0.000;2023-07-02T00:58:53;3.83;;;2.20;;
34353;SDS011;20618;0.000;0.000;2023-07-02T01:01:24;2.97;;;2.00;;
34353;SDS011;20618;0.000;0.000;2023-07-02T01:03:54;2.92;;;2.03;;
34353;SDS011;20618;0.000;0.000;2023-07-02T01:06:25;3.05;;;2.22;;
34353;SDS011;20618;0.000;0.000;2023-07-02T01:08:52;3.00;;;2.10;;
34353;SDS011;20618;0.000;0.000;2023-07-02T01:11:18;3.28;;;2.15;;
34353;SDS011;20618;0.000;0.000;2023-07-02T01:13:45;2.42;;;1.88;;
34353;SDS011;20618;0.000;0.000;2023-07-02T01:16:11;2.22;;;1.85;;
34353;SDS011;20618;0.000;0.000;2023-07-02T01:18:38;3.35;;;2.05;;
34353;SDS011;20618;0.000;0.000;2023-07-02T01:21:05;2.72;;;1.70;;
34353;SDS011;20618;0.000;0.000;2023-07-02T01:23:34;2.88;;;2.13;;
34353;SDS011;20618;0.000;0.000;2023-07-02T01:26:00;3.35;;;2.13;;
34353;SDS011;20618;0.000;0.000;2023-07-02T01:28:33;2.70;;;1.90;;
34353;SDS011;20618;0.000;0.000;2023-07-02T01:31:00;2.67;;;2.15;;
34353;SDS011;20618;0.000;0.000;2023-07-02T01:33:26;2.72;;;2.03;;
34353;SDS011;20618;0.000;0.000;2023-07-02T01:35:52;3.47;;;2.03;;
34353;SDS011;20618;0.000;0.000;2023-07-02T01:38:18;3.33;;;2.20;;
34353;SDS011;20618;0.000;0.000;2023-07-02T01:40:44;4.75;;;2.30;;
34353;SDS011;20618;0.000;0.000;2023-07-02T01:43:11;2.97;;;2.03;;
34353;SDS011;20618;0.000;0.000;2023-07-02T01:45:37;2.72;;;1.90;;
34353;SDS011;20618;0.000;0.000;2023-07-02T01:48:03;2.67;;;2.10;;
34353;SDS011;20618;0.000;0.000;2023-07-02T01:50:30;3.72;;;1.95;;
34353;SDS011;20618;0.000;0.000;2023-07-02T01:52:56;3.85;;;2.10;;
34353;SDS011;20618;0.000;0.000;2023-07-02T01:55:22;3.30;;;2.28;;
34353;SDS011;20618;0.000;0.000;2023-07-02T01:57:48;3.03;;;2.03;;
34353;SDS011;20618;0.000;0.000;2023-07-02T02:00:14;3.45;;;2.13;;
34353;SDS011;20618;0.000;0.000;2023-07-02T02:02:41;3.53;;;2.25;;
34353;SDS011;20618;0.000;0.000;2023-07-02T02:05:08;5.00;;;2.28;;
34353;SDS011;20618;0.000;0.000;2023-07-02T02:07:35;3.13;;;1.88;;
34353;SDS011;20618;0.000;0.000;2023-07-02T02:10:05;3.20;;;2.22;;
34353;SDS011;20618;0.000;0.000;2023-07-02T02:12:32;3.30;;;2.20;;
34353;SDS011;20618;0.000;0.000;2023-07-02T02:14:58;3.33;;;2.08;;
34353;SDS011;20618;0.000;0.000;2023-07-02T02:17:25;2.65;;;2.03;;
34353;SDS011;20618;0.000;0.000;2023-07-02T02:19:51;3.33;;;2.10;;
34353;SDS011;20618;0.000;0.000;2023-07-02T02:22:17;3.40;;;2.15;;
34353;SDS011;20618;0.000;0.000;2023-07-02T02:24:43;3.25;;;2.15;;
34353;SDS011;20618;0.000;0.000;2023-07-02T02:27:09;2.40;;;1.80;;
34353;SDS011;20618;0.000;0.000;2023-07-02T02:29:35;3.08;;;2.20;;
34353;SDS011;20618;0.000;0.000;2023-07-02T02:32:02;4.72;;;2.05;;
34353;SDS011;20618;0.000;0.000;2023-07-02T02:34:28;3.05;;;2.03;;
34353;SDS011;20618;0.000;0.000;2023-07-02T02:36:54;3.10;;;2.20;;
34353;SDS011;20618;0.000;0.000;2023-07-02T02:39:21;4.40;;;2.78;;
34353;SDS011;20618;0.000;0.000;2023-07-02T02:41:47;2.75;;;2.00;;
34353;SDS011;20618;0.000;0.000;2023-07-02T02:44:13;2.60;;;2.00;;
34353;SDS011;20618;0.000;0.000;2023-07-02T02:46:40;3.15;;;2.20;;
34353;SDS011;20618;0.000;0.000;2023-07-02T02:49:06;3.60;;;2.15;;
34353;SDS011;20618;0.000;0.000;2023-07-02T02:51:32;3.45;;;2.30;;
34353;SDS011;20618;0.000;0.000;2023-07-02T02:53:58;3.38;;;2.28;;
34353;SDS011;20618;0.000;0.000;2023-07-02T02:56:25;2.80;;;2.00;;
34353;SDS011;20618;0.000;0.000;2023-07-02T02:58:51;2.65;;;1.80;;
34353;SDS011;20618;0.000;0.000;2023-07-02T03:01:17;2.92;;;1.98;;
34353;SDS011;20618;0.000;0.000;2023-07-02T03:03:43;3.65;;;2.17;;
34353;SDS011;20618;0.000;0.000;2023-07-02T03:06:13;3.13;;;2.30;;
34353;SDS011;20618;0.000;0.000;2023-07-02T03:08:40;3.75;;;2.30;;
34353;SDS011;20618;0.000;0.000;2023-07-02T03:11:06;3.65;;;2.17;;
34353;SDS011;20618;0.000;0.000;2023-07-02T03:13:32;3.05;;;1.95;;
34353;SDS011;20618;0.000;0.000;2023-07-02T03:15:59;3.53;;;2.40;;
34353;SDS011;20618;0.000;0.000;2023-07-02T03:18:25;3.13;;;2.00;;
34353;SDS011;20618;0.000;0.000;2023-07-02T03:20:51;3.38;;;2.22;;
34353;SDS011;20618;0.000;0.000;2023-07-02T03:23:17;2.85;;;2.00;;
34353;SDS011;20618;0.000;0.000;2023-07-02T03:25:43;2.88;;;2.20;;
34353;SDS011;20618;0.000;0.000;2023-07-02T03:28:10;2.85;;;2.17;;
34353;SDS011;20618;0.000;0.000;2023-07-02T03:30:36;4.53;;;2.28;;
34353;SDS011;20618;0.000;0.000;2023-07-02T03:33:02;2.58;;;2.08;;
34353;SDS011;20618;0.000;0.000;2023-07-02T03:35:28;3.08;;;2.40;;
34353;SDS011;20618;0.000;0.000;2023-07-02T03:37:54;3.40;;;1.98;;
34353;SDS011;20618;0.000;0.000;2023-07-02T03:40:22;3.30;;;2.20;;
34353;SDS011;20618;0.000;0.000;2023-07-02T03:42:48;4.28;;;2.40;;
34353;SDS011;20618;0.000;0.000;2023-07-02T03:45:15;3.53;;;2.25;;
34353;SDS011;20618;0.000;0.000;2023-07-02T03:47:41;3.03;;;2.20;;
34353;SDS011;20618;0.000;0.000;2023-07-02T03:50:08;3.95;;;2.40;;
34353;SDS011;20618;0.000;0.000;2023-07-02T03:52:35;2.95;;;2.10;;
34353;SDS011;20618;0.000;0.000;2023-07-02T03:55:01;3.15;;;2.28;;
34353;SDS011;20618;0.000;0.000;2023-07-02T03:57:27;2.85;;;2.10;;
34353;SDS011;20618;0.000;0.000;2023-07-02T03:59:54;3.30;;;2.20;;
34353;SDS011;20618;0.000;0.000;2023-07-02T04:02:20;2.75;;;2.20;;
34353;SDS011;20618;0.000;0.000;2023-07-02T04:04:46;3.53;;;2.17;;
34353;SDS011;20618;0.000;0.000;2023-07-02T04:07:12;4.60;;;2.55;;
34353;SDS011;20618;0.000;0.000;2023-07-02T04:09:38;3.00;;;2.08;;
34353;SDS011;20618;0.000;0.000;2023-07-02T04:12:05;2.60;;;1.90;;
34353;SDS011;20618;0.000;0.000;2023-07-02T04:14:31;3.55;;;2.17;;
34353;SDS011;20618;0.000;0.000;2023-07-02T04:16:57;4.10;;;2.20;;
34353;SDS011;20618;0.000;0.000;2023-07-02T04:19:23;2.70;;;1.90;;
34353;SDS011;20618;0.000;0.000;2023-07-02T04:21:50;3.25;;;2.08;;
34353;SDS011;20618;0.000;0.000;2023-07-02T04:24:16;2.60;;;1.95;;
34353;SDS011;20618;0.000;0.000;2023-07-02T04:26:42;3.38;;;2.00;;
34353;SDS011;20618;0.000;0.000;2023-07-02T04:29:11;3.40;;;2.50;;
34353;SDS011;20618;0.000;0.000;2023-07-02T04:31:37;9.13;;;2.40;;
34353;SDS011;20618;0.000;0.000;2023-07-02T04:34:03;3.28;;;2.20;;
34353;SDS011;20618;0.000;0.000;2023-07-02T04:36:31;3.80;;;2.13;;
34353;SDS011;20618;0.000;0.000;2023-07-02T04:38:57;3.15;;;2.10;;
34353;SDS011;20618;0.000;0.000;2023-07-02T04:41:23;3.75;;;2.50;;
34353;SDS011;20618;0.000;0.000;2023-07-02T04:43:49;3.35;;;2.30;;
34353;SDS011;20618;0.000;0.000;2023-07-02T04:46:16;3.45;;;2.15;;
34353;SDS011;20618;0.000;0.000;2023-07-02T04:48:43;3.53;;;2.53;;
34353;SDS011;20618;0.000;0.000;2023-07-02T04:51:09;3.38;;;2.20;;
34353;SDS011;20618;0.000;0.000;2023-07-02T04:53:35;4.03;;;2.28;;
34353;SDS011;20618;0.000;0.000;2023-07-02T04:56:02;2.80;;;2.30;;
34353;SDS011;20618;0.000;0.000;2023-07-02T04:58:29;4.28;;;2.58;;
34353;SDS011;20618;0.000;0.000;2023-07-02T05:00:55;3.78;;;2.00;;
34353;SDS011;20618;0.000;0.000;2023-07-02T05:03:21;2.78;;;2.17;;
34353;SDS011;20618;0.000;0.000;2023-07-02T05:05:47;3.30;;;2.22;;
34353;SDS011;20618;0.000;0.000;2023-07-02T05:08:14;3.38;;;2.35;;
34353;SDS011;20618;0.000;0.000;2023-07-02T05:10:40;4.25;;;2.00;;
34353;SDS011;20618;0.000;0.000;2023-07-02T05:13:06;3.75;;;2.15;;
34353;SDS011;20618;0.000;0.000;2023-07-02T05:15:32;2.97;;;1.95;;
34353;SDS011;20618;0.000;0.000;2023-07-02T05:17:58;3.22;;;1.98;;
34353;SDS011;20618;0.000;0.000;2023-07-02T05:20:24;3.35;;;2.20;;
34353;SDS011;20618;0.000;0.000;2023-07-02T05:22:50;3.80;;;2.15;;
34353;SDS011;20618;0.000;0.000;2023-07-02T05:25:17;3.17;;;2.00;;
34353;SDS011;20618;0.000;0.000;2023-07-02T05:27:43;3.13;;;2.08;;
34353;SDS011;20618;0.000;0.000;2023-07-02T05:30:09;3.22;;;2.30;;
34353;SDS011;20618;0.000;0.000;2023-07-02T05:32:35;3.55;;;2.00;;
34353;SDS011;20618;0.000;0.000;2023-07-02T05:35:02;3.88;;;2.50;;
34353;SDS011;20618;0.000;0.000;2023-07-02T05:37:28;3.42;;;2.00;;
34353;SDS011;20618;0.000;0.000;2023-07-02T05:39:54;4.68;;;2.30;;
34353;SDS011;20618;0.000;0.000;2023-07-02T05:42:20;4.00;;;2.60;;
34353;SDS011;20618;0.000;0.000;2023-07-02T05:44:46;3.63;;;2.17;;
34353;SDS011;20618;0.000;0.000;2023-07-02T05:47:13;4.38;;;2.38;;
34353;SDS011;20618;0.000;0.000;2023-07-02T05:49:40;2.97;;;2.22;;
34353;SDS011;20618;0.000;0.000;2023-07-02T05:52:07;3.65;;;2.47;;
34353;SDS011;20618;0.000;0.000;2023-07-02T05:54:33;3.90;;;2.35;;
34353;SDS011;20618;0.000;0.000;2023-07-02T05:57:00;4.82;;;2.28;;
34353;SDS011;20618;0.000;0.000;2023-07-02T05:59:26;7.38;;;2.30;;
34353;SDS011;20618;0.000;0.000;2023-07-02T06:01:52;3.72;;;2.15;;
34353;SDS011;20618;0.000;0.000;2023-07-02T06:04:18;4.20;;;2.22;;
34353;SDS011;20618;0.000;0.000;2023-07-02T06:06:44;5.50;;;2.80;;
34353;SDS011;20618;0.000;0.000;2023-07-02T06:09:10;4.80;;;2.60;;
34353;SDS011;20618;0.000;0.000;2023-07-02T06:11:37;7.20;;;2.30;;
34353;SDS011;20618;0.000;0.000;2023-07-02T06:14:03;7.93;;;2.50;;
34353;SDS011;20618;0.000;0.000;2023-07-02T06:16:29;5.78;;;2.83;;
34353;SDS011;20618;0.000;0.000;2023-07-02T06:18:55;6.25;;;2.78;;
34353;SDS011;20618;0.000;0.000;2023-07-02T06:21:21;5.68;;;2.28;;
34353;SDS011;20618;0.000;0.000;2023-07-02T06:23:48;6.45;;;2.70;;
34353;SDS011;20618;0.000;0.000;2023-07-02T06:26:14;9.02;;;3.08;;
34353;SDS011;20618;0.000;0.000;2023-07-02T06:28:40;7.45;;;2.70;;
34353;SDS011;20618;0.000;0.000;2023-07-02T06:31:06;6.97;;;3.08;;
34353;SDS011;20618;0.000;0.000;2023-07-02T06:33:33;5.75;;;2.97;;
34353;SDS011;20618;0.000;0.000;2023-07-02T06:35:59;5.95;;;2.70;;
34353;SDS011;20618;0.000;0.000;2023-07-02T06:38:25;7.97;;;2.60;;
34353;SDS011;20618;0.000;0.000;2023-07-02T06:40:51;5.43;;;2.60;;
34353;SDS011;20618;0.000;0.000;2023-07-02T06:43:17;9.68;;;2.90;;
34353;SDS011;20618;0.000;0.000;2023-07-02T06:45:43;4.85;;;2.42;;
34353;SDS011;20618;0.000;0.000;2023-07-02T06:48:09;8.38;;;2.75;;
34353;SDS011;20618;0.000;0.000;2023-07-02T06:50:36;9.95;;;3.20;;
34353;SDS011;20618;0.000;0.000;2023-07-02T06:53:02;8.55;;;2.83;;
34353;SDS011;20618;0.000;0.000;2023-07-02T06:55:28;7.13;;;3.05;;
34353;SDS011;20618;0.000;0.000;2023-07-02T06:57:55;8.88;;;3.15;;
34353;SDS011;20618;0.000;0.000;2023-07-02T07:00:21;6.15;;;2.72;;
34353;SDS011;20618;0.000;0.000;2023-07-02T07:02:47;5.10;;;2.63;;
34353;SDS011;20618;0.000;0.000;2023-07-02T07:05:14;6.30;;;2.78;;
34353;SDS011;20618;0.000;0.000;2023-07-02T07:07:40;6.30;;;2.40;;
34353;SDS011;20618;0.000;0.000;2023-07-02T07:10:07;7.20;;;2.90;;
34353;SDS011;20618;0.000;0.000;2023-07-02T07:12:33;10.55;;;3.35;;
34353;SDS011;20618;0.000;0.000;2023-07-02T07:14:59;8.40;;;3.28;;
34353;SDS011;20618;0.000;0.000;2023-07-02T07:17:25;6.85;;;2.88;;
34353;SDS011;20618;0.000;0.000;2023-07-02T07:19:51;9.15;;;3.13;;
34353;SDS011;20618;0.000;0.000;2023-07-02T07:22:17;9.15;;;2.95;;
34353;SDS011;20618;0.000;0.000;2023-07-02T07:24:44;7.45;;;2.63;;
34353;SDS011;20618;0.000;0.000;2023-07-02T07:27:10;9.43;;;3.20;;
34353;SDS011;20618;0.000;0.000;2023-07-02T07:29:36;5.25;;;2.53;;
34353;SDS011;20618;0.000;0.000;2023-07-02T07:32:02;12.18;;;3.15;;
34353;SDS011;20618;0.000;0.000;2023-07-02T07:34:28;8.93;;;2.78;;
34353;SDS011;20618;0.000;0.000;2023-07-02T07:36:55;9.70;;;3.42;;
34353;SDS011;20618;0.000;0.000;2023-07-02T07:39:21;6.70;;;2.95;;
34353;SDS011;20618;0.000;0.000;2023-07-02T07:41:47;7.30;;;3.08;;
34353;SDS011;20618;0.000;0.000;2023-07-02T07:44:13;7.43;;;3.00;;
34353;SDS011;20618;0.000;0.000;2023-07-02T07:46:39;9.93;;;2.70;;
34353;SDS011;20618;0.000;0.000;2023-07-02T07:49:06;9.73;;;2.90;;
34353;SDS011;20618;0.000;0.000;2023-07-02T07:51:32;7.00;;;2.70;;
34353;SDS011;20618;0.000;0.000;2023-07-02T07:54:00;7.97;;;2.90;;
34353;SDS011;20618;0.000;0.000;2023-07-02T07:56:27;8.07;;;3.15;;
34353;SDS011;20618;0.000;0.000;2023-07-02T07:58:53;8.73;;;3.10;;
34353;SDS011;20618;0.000;0.000;2023-07-02T08:01:19;8.98;;;2.88;;
34353;SDS011;20618;0.000;0.000;2023-07-02T08:03:45;8.95;;;3.08;;
34353;SDS011;20618;0.000;0.000;2023-07-02T08:06:11;6.28;;;2.92;;
34353;SDS011;20618;0.000;0.000;2023-07-02T08:08:38;6.22;;;3.05;;
34353;SDS011;20618;0.000;0.000;2023-07-02T08:11:04;8.07;;;2.92;;
34353;SDS011;20618;0.000;0.000;2023-07-02T08:13:30;7.55;;;3.30;;
34353;SDS011;20618;0.000;0.000;2023-07-02T08:15:56;9.75;;;3.40;;
34353;SDS011;20618;0.000;0.000;2023-07-02T08:18:22;6.20;;;2.67;;
34353;SDS011;20618;0.000;0.000;2023-07-02T08:20:48;8.65;;;2.92;;
34353;SDS011;20618;0.000;0.000;2023-07-02T08:23:15;13.55;;;3.13;;
34353;SDS011;20618;0.000;0.000;2023-07-02T08:25:41;7.95;;;3.40;;
34353;SDS011;20618;0.000;0.000;2023-07-02T08:28:07;7.70;;;2.88;;
34353;SDS011;20618;0.000;0.000;2023-07-02T08:30:33;9.70;;;3.30;;
34353;SDS011;20618;0.000;0.000;2023-07-02T08:32:59;9.02;;;3.28;;
34353;SDS011;20618;0.000;0.000;2023-07-02T08:35:25;8.65;;;2.78;;
34353;SDS011;20618;0.000;0.000;2023-07-02T08:37:51;7.55;;;2.70;;
34353;SDS011;20618;0.000;0.000;2023-07-02T08:40:18;10.13;;;3.13;;
34353;SDS011;20618;0.000;0.000;2023-07-02T08:42:45;13.57;;;3.75;;
34353;SDS011;20618;0.000;0.000;2023-07-02T08:45:15;7.05;;;3.60;;
34353;SDS011;20618;0.000;0.000;2023-07-02T08:47:42;6.95;;;3.03;;
34353;SDS011;20618;0.000;0.000;2023-07-02T08:50:09;7.53;;;2.88;;
34353;SDS011;20618;0.000;0.000;2023-07-02T08:52:35;8.85;;;3.00;;
34353;SDS011;20618;0.000;0.000;2023-07-02T08:55:01;9.73;;;3.47;;
34353;SDS011;20618;0.000;0.000;2023-07-02T08:57:27;9.13;;;3.17;;
34353;SDS011;20618;0.000;0.000;2023-07-02T08:59:53;8.55;;;3.85;;
34353;SDS011;20618;0.000;0.000;2023-07-02T09:02:29;7.88;;;3.10;;
34353;SDS011;20618;0.000;0.000;2023-07-02T09:04:59;11.10;;;3.25;;
34353;SDS011;20618;0.000;0.000;2023-07-02T09:07:25;8.98;;;3.25;;
34353;SDS011;20618;0.000;0.000;2023-07-02T09:09:51;9.93;;;3.00;;
34353;SDS011;20618;0.000;0.000;2023-07-02T09:12:28;11.15;;;3.30;;
34353;SDS011;20618;0.000;0.000;2023-07-02T09:14:55;10.25;;;3.53;;
34353;SDS011;20618;0.000;0.000;2023-07-02T09:17:26;11.77;;;3.28;;
34353;SDS011;20618;0.000;0.000;2023-07-02T09:19:52;11.20;;;3.42;;
34353;SDS011;20618;0.000;0.000;2023-07-02T09:22:19;7.20;;;3.17;;
34353;SDS011;20618;0.000;0.000;2023-07-02T09:24:52;10.60;;;3.47;;
34353;SDS011;20618;0.000;0.000;2023-07-02T09:27:19;8.02;;;3.42;;
34353;SDS011;20618;0.000;0.000;2023-07-02T09:29:49;8.35;;;3.28;;
34353;SDS011;20618;0.000;0.000;2023-07-02T09:32:24;10.32;;;3.67;;
34353;SDS011;20618;0.000;0.000;2023-07-02T09:34:56;10.95;;;3.10;;
34353;SDS011;20618;0.000;0.000;2023-07-02T09:37:23;8.75;;;3.13;;
34353;SDS011;20618;0.000;0.000;2023-07-02T09:39:50;6.25;;;2.63;;
34353;SDS011;20618;0.000;0.000;2023-07-02T09:42:19;6.28;;;2.92;;
34353;SDS011;20618;0.000;0.000;2023-07-02T09:44:46;7.40;;;3.10;;
34353;SDS011;20618;0.000;0.000;2023-07-02T09:47:12;6.80;;;2.72;;
34353;SDS011;20618;0.000;0.000;2023-07-02T09:49:41;7.15;;;3.25;;
34353;SDS011;20618;0.000;0.000;2023-07-02T09:52:08;6.72;;;3.15;;
34353;SDS011;20618;0.000;0.000;2023-07-02T09:54:35;12.90;;;3.08;;
34353;SDS011;20618;0.000;0.000;2023-07-02T09:57:02;8.55;;;2.95;;
34353;SDS011;20618;0.000;0.000;2023-07-02T09:59:28;10.30;;;3.58;;
34353;SDS011;20618;0.000;0.000;2023-07-02T10:01:54;10.52;;;3.53;;
34353;SDS011;20618;0.000;0.000;2023-07-02T10:04:21;8.57;;;3.08;;
34353;SDS011;20618;0.000;0.000;2023-07-02T10:06:54;8.68;;;3.38;;
34353;SDS011;20618;0.000;0.000;2023-07-02T10:09:20;6.15;;;3.92;;
34353;SDS011;20618;0.000;0.000;2023-07-02T10:11:47;10.00;;;3.45;;
34353;SDS011;20618;0.000;0.000;2023-07-02T10:14:13;8.18;;;3.30;;
34353;SDS011;20618;0.000;0.000;2023-07-02T10:16:52;6.95;;;3.50;;
34353;SDS011;20618;0.000;0.000;2023-07-02T10:19:19;8.80;;;3.22;;
34353;SDS011;20618;0.000;0.000;2023-07-02T10:21:46;7.30;;;3.65;;
34353;SDS011;20618;0.000;0.000;2023-07-02T10:24:15;9.52;;;3.17;;
34353;SDS011;20618;0.000;0.000;2023-07-02T10:26:51;10.70;;;3.67;;
34353;SDS011;20618;0.000;0.000;2023-07-02T10:29:18;8.60;;;3.65;;
34353;SDS011;20618;0.000;0.000;2023-07-02T10:31:49;7.13;;;2.90;;
34353;SDS011;20618;0.000;0.000;2023-07-02T10:34:15;12.47;;;3.57;;
34353;SDS011;20618;0.000;0.000;2023-07-02T10:36:41;10.23;;;3.50;;
34353;SDS011;20618;0.000;0.000;2023-07-02T10:39:08;7.00;;;3.28;;
34353;SDS011;20618;0.000;0.000;2023-07-02T10:41:34;9.27;;;3.78;;
34353;SDS011;20618;0.000;0.000;2023-07-02T10:44:07;10.65;;;3.83;;
34353;SDS011;20618;0.000;0.000;2023-07-02T10:46:33;8.45;;;3.40;;
34353;SDS011;20618;0.000;0.000;2023-07-02T10:49:00;8.77;;;3.38;;
34353;SDS011;20618;0.000;0.000;2023-07-02T10:51:26;8.07;;;3.50;;
34353;SDS011;20618;0.000;0.000;2023-07-02T10:53:57;8.75;;;3.35;;
34353;SDS011;20618;0.000;0.000;2023-07-02T10:56:24;7.55;;;3.63;;
34353;SDS011;20618;0.000;0.000;2023-07-02T10:58:51;7.40;;;3.35;;
34353;SDS011;20618;0.000;0.000;2023-07-02T11:01:27;8.05;;;3.60;;
34353;SDS011;20618;0.000;0.000;2023-07-02T11:03:58;8.25;;;3.30;;
34353;SDS011;20618;0.000;0.000;2023-07-02T11:08:51;15.70;;;3.83;;
34353;SDS011;20618;0.000;0.000;2023-07-02T11:11:17;9.50;;;3.83;;
34353;SDS011;20618;0.000;0.000;2023-07-02T11:13:44;9.05;;;3.30;;
34353;SDS011;20618;0.000;0.000;2023-07-02T11:16:21;6.47;;;3.50;;
34353;SDS011;20618;0.000;0.000;2023-07-02T11:18:50;10.00;;;3.10;;
34353;SDS011;20618;0.000;0.000;2023-07-02T11:21:27;8.57;;;3.50;;
34353;SDS011;20618;0.000;0.000;2023-07-02T11:24:00;8.68;;;3.20;;
34353;SDS011;20618;0.000;0.000;2023-07-02T11:26:34;6.45;;;2.95;;
34353;SDS011;20618;0.000;0.000;2023-07-02T11:29:00;6.70;;;3.25;;
34353;SDS011;20618;0.000;0.000;2023-07-02T11:31:26;6.80;;;3.47;;
34353;SDS011;20618;0.000;0.000;2023-07-02T11:33:53;7.78;;;3.33;;
34353;SDS011;20618;0.000;0.000;2023-07-02T11:36:22;8.48;;;3.42;;
34353;SDS011;20618;0.000;0.000;2023-07-02T11:38:49;5.93;;;3.58;;
34353;SDS011;20618;0.000;0.000;2023-07-02T11:41:16;11.63;;;3.78;;
34353;SDS011;20618;0.000;0.000;2023-07-02T11:43:43;5.68;;;3.15;;
34353;SDS011;20618;0.000;0.000;2023-07-02T11:46:09;6.60;;;3.45;;
34353;SDS011;20618;0.000;0.000;2023-07-02T11:48:35;6.55;;;3.50;;
34353;SDS011;20618;0.000;0.000;2023-07-02T11:51:01;12.98;;;3.92;;
34353;SDS011;20618;0.000;0.000;2023-07-02T11:53:27;7.05;;;3.58;;
34353;SDS011;20618;0.000;0.000;2023-07-02T11:55:53;10.82;;;4.15;;
34353;SDS011;20618;0.000;0.000;2023-07-02T11:58:20;5.43;;;3.35;;
34353;SDS011;20618;0.000;0.000;2023-07-02T12:00:46;6.90;;;3.65;;
34353;SDS011;20618;0.000;0.000;2023-07-02T12:03:12;7.57;;;3.75;;
34353;SDS011;20618;0.000;0.000;2023-07-02T12:05:38;8.98;;;3.35;;
34353;SDS011;20618;0.000;0.000;2023-07-02T12:08:04;7.85;;;4.22;;
34353;SDS011;20618;0.000;0.000;2023-07-02T12:10:31;8.68;;;3.78;;
34353;SDS011;20618;0.000;0.000;2023-07-02T12:12:57;8.93;;;3.42;;
34353;SDS011;20618;0.000;0.000;2023-07-02T12:15:23;7.70;;;4.00;;
34353;SDS011;20618;0.000;0.000;2023-07-02T12:17:49;6.20;;;3.55;;
34353;SDS011;20618;0.000;0.000;2023-07-02T12:20:15;6.53;;;3.25;;
34353;SDS011;20618;0.000;0.000;2023-07-02T12:22:42;7.18;;;3.33;;
34353;SDS011;20618;0.000;0.000;2023-07-02T12:25:09;7.53;;;3.75;;
34353;SDS011;20618;0.000;0.000;2023-07-02T12:27:35;8.82;;;3.47;;
34353;SDS011;20618;0.000;0.000;2023-07-02T12:30:02;8.32;;;3.38;;
34353;SDS011;20618;0.000;0.000;2023-07-02T12:32:28;5.40;;;3.38;;
34353;SDS011;20618;0.000;0.000;2023-07-02T12:34:55;6.60;;;3.28;;
34353;SDS011;20618;0.000;0.000;2023-07-02T12:37:21;4.68;;;3.40;;
34353;SDS011;20618;0.000;0.000;2023-07-02T12:39:47;7.10;;;3.05;;
34353;SDS011;20618;0.000;0.000;2023-07-02T12:42:13;7.68;;;3.45;;
34353;SDS011;20618;0.000;0.000;2023-07-02T12:44:40;8.13;;;3.55;;
34353;SDS011;20618;0.000;0.000;2023-07-02T12:47:06;6.68;;;3.65;;
34353;SDS011;20618;0.000;0.000;2023-07-02T12:49:33;8.57;;;3.42;;
34353;SDS011;20618;0.000;0.000;2023-07-02T12:51:59;6.95;;;3.70;;
34353;SDS011;20618;0.000;0.000;2023-07-02T12:54:26;6.80;;;3.13;;
34353;SDS011;20618;0.000;0.000;2023-07-02T12:56:52;8.45;;;3.65;;
34353;SDS011;20618;0.000;0.000;2023-07-02T12:59:18;6.00;;;3.25;;
34353;SDS011;20618;0.000;0.000;2023-07-02T13:01:44;6.72;;;3.33;;
34353;SDS011;20618;0.000;0.000;2023-07-02T13:04:10;9.13;;;3.70;;
34353;SDS011;20618;0.000;0.000;2023-07-02T13:06:37;8.85;;;3.55;;
34353;SDS011;20618;0.000;0.000;2023-07-02T13:09:05;5.88;;;3.67;;
34353;SDS011;20618;0.000;0.000;2023-07-02T13:11:32;7.60;;;3.60;;
34353;SDS011;20618;0.000;0.000;2023-07-02T13:13:58;8.73;;;3.30;;
34353;SDS011;20618;0.000;0.000;2023-07-02T13:16:24;8.77;;;3.45;;
34353;SDS011;20618;0.000;0.000;2023-07-02T13:18:51;7.45;;;3.78;;
34353;SDS011;20618;0.000;0.000;2023-07-02T13:21:20;9.68;;;3.45;;
34353;SDS011;20618;0.000;0.000;2023-07-02T13:23:46;7.18;;;3.40;;
34353;SDS011;20618;0.000;0.000;2023-07-02T13:26:12;5.93;;;3.40;;
34353;SDS011;20618;0.000;0.000;2023-07-02T13:28:39;10.23;;;3.72;;
34353;SDS011;20618;0.000;0.000;2023-07-02T13:31:05;11.88;;;3.70;;
34353;SDS011;20618;0.000;0.000;2023-07-02T13:33:33;12.02;;;3.63;;
34353;SDS011;20618;0.000;0.000;2023-07-02T13:35:59;17.20;;;4.65;;
34353;SDS011;20618;0.000;0.000;2023-07-02T13:38:25;13.43;;;4.30;;
34353;SDS011;20618;0.000;0.000;2023-07-02T13:40:51;9.13;;;3.50;;
34353;SDS011;20618;0.000;0.000;2023-07-02T13:43:17;9.73;;;4.03;;
34353;SDS011;20618;0.000;0.000;2023-07-02T13:45:44;13.88;;;3.88;;
34353;SDS011;20618;0.000;0.000;2023-07-02T13:48:10;9.75;;;4.38;;
34353;SDS011;20618;0.000;0.000;2023-07-02T13:50:36;9.50;;;4.03;;
34353;SDS011;20618;0.000;0.000;2023-07-02T13:53:02;13.35;;;4.60;;
34353;SDS011;20618;0.000;0.000;2023-07-02T13:55:29;12.00;;;4.07;;
34353;SDS011;20618;0.000;0.000;2023-07-02T13:57:56;10.73;;;3.83;;
34353;SDS011;20618;0.000;0.000;2023-07-02T14:00:25;13.82;;;4.05;;
34353;SDS011;20618;0.000;0.000;2023-07-02T14:02:52;12.37;;;3.60;;
34353;SDS011;20618;0.000;0.000;2023-07-02T14:05:18;11.30;;;3.78;;
34353;SDS011;20618;0.000;0.000;2023-07-02T14:07:44;9.90;;;3.63;;
34353;SDS011;20618;0.000;0.000;2023-07-02T14:10:11;8.40;;;3.90;;
34353;SDS011;20618;0.000;0.000;2023-07-02T14:12:38;8.15;;;3.60;;
34353;SDS011;20618;0.000;0.000;2023-07-02T14:15:04;5.57;;;3.50;;
34353;SDS011;20618;0.000;0.000;2023-07-02T14:17:30;5.93;;;3.90;;
34353;SDS011;20618;0.000;0.000;2023-07-02T14:19:56;7.95;;;3.97;;
34353;SDS011;20618;0.000;0.000;2023-07-02T14:22:23;10.85;;;3.33;;
34353;SDS011;20618;0.000;0.000;2023-07-02T14:24:49;5.78;;;3.70;;
34353;SDS011;20618;0.000;0.000;2023-07-02T14:27:15;8.70;;;3.75;;
34353;SDS011;20618;0.000;0.000;2023-07-02T14:29:41;6.80;;;3.80;;
34353;SDS011;20618;0.000;0.000;2023-07-02T14:32:07;10.68;;;4.00;;
34353;SDS011;20618;0.000;0.000;2023-07-02T14:34:34;10.48;;;3.72;;
34353;SDS011;20618;0.000;0.000;2023-07-02T14:37:01;8.88;;;4.20;;
34353;SDS011;20618;0.000;0.000;2023-07-02T14:39:28;7.60;;;3.47;;
34353;SDS011;20618;0.000;0.000;2023-07-02T14:41:54;7.47;;;3.53;;
34353;SDS011;20618;0.000;0.000;2023-07-02T14:44:20;6.95;;;3.72;;
34353;SDS011;20618;0.000;0.000;2023-07-02T14:46:47;6.63;;;3.35;;
34353;SDS011;20618;0.000;0.000;2023-07-02T14:49:13;9.23;;;3.95;;
34353;SDS011;20618;0.000;0.000;2023-07-02T14:51:40;6.90;;;3.55;;
34353;SDS011;20618;0.000;0.000;2023-07-02T14:54:06;6.75;;;3.75;;
34353;SDS011;20618;0.000;0.000;2023-07-02T14:56:33;5.07;;;3.50;;
34353;SDS011;20618;0.000;0.000;2023-07-02T14:59:03;8.23;;;3.83;;